Time;durP1;ratioP1;P1;durP2;ratioP2;P2;SDS_P1;SDS_P2;PMS_P1;PMS_P2;Temp;Humidity;BMP_temperature;BMP_pressure;BME280_temperature;BME280_humidity;BME280_pressure;Samples;Min_cycle;Max_cycle;Signal;HPM_P1;HPM_P2
2023/03/01 00:02:08;;;;;;;9.48;4.40;;;;;;;-3.06;100.00;102566.00;6001740;28;20545;-72
2023/03/01 00:05:04;;;;;;;9.27;3.53;;;;;;;-3.39;100.00;102590.47;6002196;28;20471;-72
2023/03/01 00:08:00;;;;;;;12.88;5.18;;;;;;;-4.09;99.68;102577.13;6002012;28;20084;-72
2023/03/01 00:11:05;;;;;;;10.77;4.70;;;;;;;-4.35;100.00;102582.41;6002337;28;20050;-73
2023/03/01 00:14:01;;;;;;;10.40;4.32;;;;;;;-3.72;100.00;102578.63;6001628;28;20069;-73
2023/03/01 00:16:57;;;;;;;8.65;3.65;;;;;;;-3.44;100.00;102553.38;6002352;28;20495;-71
2023/03/01 00:19:52;;;;;;;8.13;3.93;;;;;;;-3.38;100.00;102579.25;6002313;28;20039;-71
2023/03/01 00:22:47;;;;;;;8.63;3.90;;;;;;;-3.46;100.00;102582.75;5989823;28;20038;-72
2023/03/01 00:25:43;;;;;;;7.87;3.57;;;;;;;-3.42;100.00;102582.72;6001916;28;20047;-71
2023/03/01 00:28:38;;;;;;;10.35;4.18;;;;;;;-3.19;99.96;102577.34;6001926;28;20443;-72
2023/03/01 00:31:34;;;;;;;9.67;3.90;;;;;;;-3.44;98.14;102565.47;6002327;28;20054;-71
2023/03/01 00:34:29;;;;;;;8.40;3.70;;;;;;;-4.10;97.66;102557.25;6001084;28;20030;-73
2023/03/01 00:37:25;;;;;;;10.20;3.83;;;;;;;-4.59;98.65;102564.38;6001642;28;20513;-72
2023/03/01 00:40:20;;;;;;;11.30;4.85;;;;;;;-4.83;99.65;102570.47;6001690;28;20031;-71
2023/03/01 00:43:15;;;;;;;11.03;4.20;;;;;;;-4.23;100.00;102574.59;6001166;28;20489;-72
2023/03/01 00:46:13;;;;;;;8.63;4.23;;;;;;;-3.70;100.00;102571.72;6001693;28;20050;-73
2023/03/01 00:49:08;;;;;;;8.75;3.17;;;;;;;-3.51;100.00;102556.03;6001884;28;20033;-71
2023/03/01 00:52:03;;;;;;;11.13;4.07;;;;;;;-3.45;100.00;102566.34;6001126;28;20039;-70
2023/03/01 00:54:59;;;;;;;10.65;4.38;;;;;;;-3.47;100.00;102543.00;6001774;28;20402;-71
2023/03/01 00:57:54;;;;;;;11.93;4.03;;;;;;;-3.38;99.52;102573.19;6001773;28;20502;-73
2023/03/01 01:00:50;;;;;;;10.13;3.87;;;;;;;-3.40;97.77;102569.75;6001943;28;20454;-72
2023/03/01 01:03:51;;;;;;;8.23;3.72;;;;;;;-3.52;99.57;102555.16;6000999;28;20035;-71
2023/03/01 01:06:46;;;;;;;;;;;;;;;-3.02;100.00;102568.53;6001982;28;20061;-72
2023/03/01 01:09:42;;;;;;;11.13;4.20;;;;;;;-3.73;100.00;102571.72;6001632;28;19914;-74
2023/03/01 01:12:37;;;;;;;10.63;3.90;;;;;;;-4.02;99.91;102558.06;6000864;28;20031;-71
2023/03/01 01:15:35;;;;;;;9.20;4.43;;;;;;;-3.85;100.00;102551.06;6001770;28;20277;-73
2023/03/01 01:18:30;;;;;;;11.73;5.10;;;;;;;-3.77;99.82;102558.78;6003991;28;20383;-72
2023/03/01 01:21:26;;;;;;;13.70;4.20;;;;;;;-4.01;99.00;102552.03;6000816;28;20035;-71
2023/03/01 01:24:22;;;;;;;8.48;3.78;;;;;;;-4.37;98.96;102559.97;6001066;28;20070;-71
2023/03/01 01:27:17;;;;;;;14.20;4.55;;;;;;;-3.95;100.00;102558.91;6005371;28;20038;-70
2023/03/01 01:30:13;;;;;;;8.97;3.93;;;;;;;-3.56;100.00;102552.59;6005177;28;20053;-71
2023/03/01 01:33:08;;;;;;;10.27;4.15;;;;;;;-3.70;99.90;102539.75;6004508;28;20625;-70
2023/03/01 01:36:05;;;;;;;16.77;5.60;;;;;;;-3.96;99.17;102539.91;6005483;28;20371;-70
2023/03/01 01:39:01;;;;;;;10.00;4.50;;;;;;;-3.91;99.19;102552.81;6004686;28;20046;-70
2023/03/01 01:41:56;;;;;;;13.52;4.88;;;;;;;-3.63;99.89;102554.38;6004105;28;20039;-70
2023/03/01 01:45:30;;;;;;;9.80;4.43;;;;;;;-3.44;100.00;102557.69;6005163;28;20542;-71
2023/03/01 01:48:40;;;;;;;9.88;3.47;;;;;;;-3.58;100.00;102536.19;6005221;28;20088;-70
2023/03/01 01:51:40;;;;;;;10.07;4.50;;;;;;;-3.61;98.36;102518.94;6005083;28;20097;-71
2023/03/01 01:54:50;;;;;;;11.85;4.30;;;;;;;-4.11;97.12;102541.75;6004025;28;20039;-70
2023/03/01 01:57:48;;;;;;;7.90;3.63;;;;;;;-4.37;97.94;102544.44;6003840;28;20437;-72
2023/03/01 02:00:44;;;;;;;7.80;3.75;;;;;;;-3.82;99.76;102539.81;6004829;28;20039;-72
2023/03/01 02:03:42;;;;;;;11.82;4.75;;;;;;;-3.65;100.00;102533.66;6003661;28;20066;-70
2023/03/01 02:06:41;;;;;;;10.73;3.90;;;;;;;-3.53;100.00;102522.31;6004461;28;20031;-71
2023/03/01 02:09:37;;;;;;;9.00;4.20;;;;;;;-3.75;99.81;102516.44;6019881;28;20030;-72
2023/03/01 02:12:33;;;;;;;11.45;4.68;;;;;;;-4.11;98.60;102532.25;6003876;28;20038;-71
2023/03/01 02:15:36;;;;;;;8.52;3.67;;;;;;;-4.06;99.41;102529.63;6004374;28;20441;-69
2023/03/01 02:18:31;;;;;;;9.90;3.75;;;;;;;-3.78;99.71;102532.00;6003029;28;20109;-70
2023/03/01 02:21:50;;;;;;;12.80;3.93;;;;;;;-3.62;99.08;102522.41;6001797;28;20482;-71
2023/03/01 02:24:54;;;;;;;11.55;4.25;;;;;;;-3.55;100.00;102513.69;6000409;28;20038;-71
2023/03/01 02:28:04;;;;;;;12.63;4.13;;;;;;;-3.62;98.25;102499.94;6003607;28;20089;-69
2023/03/01 02:34:17;;;;;;;9.55;3.45;;;;;;;-4.73;96.53;102510.97;6002403;28;20031;-70
2023/03/01 02:37:14;;;;;;;9.82;4.15;;;;;;;-5.05;97.79;102504.16;6003877;28;20038;-70
2023/03/01 02:40:17;;;;;;;9.07;4.07;;;;;;;-4.83;99.79;102502.34;6018276;28;20510;-71
2023/03/01 02:43:13;;;;;;;9.57;4.18;;;;;;;-4.37;100.00;102496.13;6002214;28;20045;-70
2023/03/01 02:46:15;;;;;;;11.07;4.80;;;;;;;-4.35;100.00;102491.78;6003925;28;20038;-71
2023/03/01 02:49:23;;;;;;;8.02;3.70;;;;;;;-4.99;100.00;102504.13;6003892;28;20042;-70
2023/03/01 02:52:30;;;;;;;15.45;4.35;;;;;;;-5.11;100.00;102495.56;6002551;28;20038;-70
2023/03/01 02:55:27;;;;;;;10.13;4.18;;;;;;;-5.04;100.00;102497.25;6002567;28;20549;-69
2023/03/01 02:58:22;;;;;;;14.18;4.05;;;;;;;-5.35;100.00;102472.34;6003480;28;20045;-70
2023/03/01 03:01:18;;;;;;;12.83;4.17;;;;;;;-5.65;100.00;102481.84;6002790;28;20475;-70
2023/03/01 03:04:20;;;;;;;10.93;3.95;;;;;;;-5.21;100.00;102486.09;6002522;28;20042;-70
2023/03/01 03:07:15;;;;;;;8.15;3.28;;;;;;;-4.69;100.00;102466.09;6003279;28;20030;-70
2023/03/01 03:10:20;;;;;;;8.67;4.27;;;;;;;-4.55;100.00;102462.59;6002963;28;20097;-70
2023/03/01 03:13:16;;;;;;;11.35;5.13;;;;;;;-4.33;100.00;102476.28;6002432;28;20467;-70
2023/03/01 03:16:11;;;;;;;8.23;3.88;;;;;;;-4.34;100.00;102466.78;6003012;28;20115;-69
2023/03/01 03:19:07;;;;;;;10.10;4.63;;;;;;;-4.15;100.00;102473.56;6002993;28;20077;-70
2023/03/01 03:22:02;;;;;;;11.30;4.93;;;;;;;-4.05;100.00;102467.44;5999019;28;20825;-70
2023/03/01 03:24:57;;;;;;;13.33;4.30;;;;;;;-4.22;100.00;102466.72;6003112;28;20042;-70
2023/03/01 03:27:57;;;;;;;10.87;4.67;;;;;;;-4.13;100.00;102456.28;6002483;28;20042;-69
2023/03/01 03:30:52;;;;;;;7.93;3.92;;;;;;;-3.99;99.95;102467.41;6002760;28;20093;-71
2023/03/01 03:33:48;;;;;;;11.03;4.40;;;;;;;-3.81;100.00;102469.88;6001515;28;20031;-69
2023/03/01 03:36:43;;;;;;;10.60;4.00;;;;;;;-3.84;99.57;102467.31;6002783;28;20046;-70
2023/03/01 03:39:38;;;;;;;10.77;4.57;;;;;;;-4.10;97.90;102456.25;6002283;28;20039;-70
2023/03/01 03:42:34;;;;;;;12.27;3.80;;;;;;;-4.13;97.88;102445.91;6001721;28;20033;-70
2023/03/01 03:45:29;;;;;;;12.90;4.60;;;;;;;-3.91;99.21;102454.38;6002513;28;20371;-70
2023/03/01 03:48:25;;;;;;;10.57;5.03;;;;;;;-3.96;99.50;102475.16;6002049;28;20246;-70
2023/03/01 03:51:22;;;;;;;11.70;4.90;;;;;;;-3.93;99.25;102454.41;6002700;28;20027;-69
2023/03/01 03:54:17;;;;;;;10.13;4.82;;;;;;;-4.12;99.46;102465.78;6001916;28;20035;-70
2023/03/01 03:57:13;;;;;;;13.23;4.93;;;;;;;-4.12;100.00;102470.09;6002265;28;20041;-68
2023/03/01 04:00:14;;;;;;;14.73;4.07;;;;;;;-3.84;100.00;102463.84;6001867;28;20038;-69
2023/03/01 04:03:10;;;;;;;;;;;;;;;-4.24;100.00;102474.47;6001880;28;20034;-69
2023/03/01 04:06:06;;;;;;;12.45;4.82;;;;;;;-4.38;100.00;102470.25;6002034;28;20005;-69
2023/03/01 04:09:02;;;;;;;13.40;4.40;;;;;;;-4.21;100.00;102463.22;6002450;28;20478;-67
2023/03/01 04:11:57;;;;;;;12.18;4.63;;;;;;;-4.59;99.08;102473.81;6001096;28;20274;-70
2023/03/01 04:14:53;;;;;;;10.50;4.10;;;;;;;-4.91;98.86;102479.13;6001965;28;20062;-68
2023/03/01 04:17:48;;;;;;;10.60;4.15;;;;;;;-5.16;98.82;102480.03;6001751;28;20046;-68
2023/03/01 04:20:44;;;;;;;10.23;4.13;;;;;;;-5.65;99.15;102487.00;6002185;28;20043;-68
2023/03/01 04:23:40;;;;;;;10.35;4.25;;;;;;;-5.15;100.00;102479.19;5990043;28;20027;-68
2023/03/01 04:26:36;;;;;;;12.77;4.95;;;;;;;-4.75;100.00;102463.53;6001568;28;20045;-68
2023/03/01 04:29:31;;;;;;;11.33;4.53;;;;;;;-4.66;100.00;102481.59;6002090;28;20035;-68
2023/03/01 04:32:26;;;;;;;9.50;3.60;;;;;;;-4.40;100.00;102480.59;6000896;28;20035;-68
2023/03/01 04:35:21;;;;;;;13.07;4.53;;;;;;;-4.31;100.00;102472.81;6002127;28;20439;-67
2023/03/01 04:38:18;;;;;;;14.37;5.07;;;;;;;-4.03;100.00;102483.84;6001717;28;20039;-67
2023/03/01 04:41:15;;;;;;;7.70;3.70;;;;;;;-4.47;99.21;102467.72;6001813;28;20039;-68
2023/03/01 04:44:10;;;;;;;12.60;4.35;;;;;;;-4.45;98.69;102484.09;6001087;28;20042;-69
2023/03/01 04:47:06;;;;;;;12.80;4.50;;;;;;;-4.94;97.37;102475.66;6001290;28;20549;-67
2023/03/01 04:50:01;;;;;;;13.63;6.07;;;;;;;-4.55;99.89;102469.47;6001704;28;20065;-68
2023/03/01 04:52:59;;;;;;;10.17;4.20;;;;;;;-4.50;99.42;102480.66;6004706;28;20035;-68
2023/03/01 04:55:56;;;;;;;11.02;4.10;;;;;;;-4.42;99.03;102476.31;6006390;28;20549;-67
2023/03/01 04:58:53;;;;;;;8.43;3.88;;;;;;;-4.34;99.30;102478.00;6005909;28;20089;-68
2023/03/01 05:01:52;;;;;;;7.38;3.80;;;;;;;-4.83;97.48;102479.94;6005393;28;20034;-68
2023/03/01 05:04:47;;;;;;;12.50;4.18;;;;;;;-5.16;97.47;102467.13;6005984;28;20042;-68
2023/03/01 05:07:43;;;;;;;16.03;3.97;;;;;;;-4.83;98.72;102461.84;6004849;28;20042;-67
2023/03/01 05:10:38;;;;;;;9.53;4.70;;;;;;;-5.10;97.32;102476.59;6006238;28;20126;-70
2023/03/01 05:13:34;;;;;;;12.57;4.60;;;;;;;-5.53;98.60;102466.34;6005337;28;20031;-69
2023/03/01 05:16:30;;;;;;;9.63;3.70;;;;;;;-5.26;99.62;102474.91;6005717;28;20062;-70
2023/03/01 05:19:27;;;;;;;10.48;4.63;;;;;;;-5.20;100.00;102455.06;6006016;28;20045;-70
2023/03/01 05:22:22;;;;;;;9.13;4.38;;;;;;;-4.75;100.00;102460.94;6004407;28;20041;-70
2023/03/01 05:25:18;;;;;;;8.07;4.70;;;;;;;-4.36;100.00;102455.56;6005764;28;20030;-70
2023/03/01 05:28:13;;;;;;;7.22;3.83;;;;;;;-4.64;100.00;102446.22;6005684;28;20038;-69
2023/03/01 05:31:12;;;;;;;15.35;5.00;;;;;;;-4.73;99.85;102460.09;6005505;28;20058;-69
2023/03/01 05:34:07;;;;;;;9.50;4.70;;;;;;;-5.32;98.43;102451.63;6004934;28;20030;-68
2023/03/01 05:37:02;;;;;;;9.77;3.77;;;;;;;-5.78;98.02;102459.47;6005145;28;20045;-68
2023/03/01 05:39:58;;;;;;;9.32;3.85;;;;;;;-6.03;99.17;102462.09;6005393;28;20026;-68
2023/03/01 05:42:55;;;;;;;9.33;3.80;;;;;;;-5.75;99.59;102469.78;6004664;28;20538;-69
2023/03/01 05:45:50;;;;;;;9.32;4.30;;;;;;;-5.61;100.00;102464.63;6005576;28;20042;-70
2023/03/01 05:48:48;;;;;;;12.75;5.57;;;;;;;-5.22;100.00;102456.81;6005465;28;20491;-68
2023/03/01 05:51:47;;;;;;;11.13;4.55;;;;;;;-5.14;100.00;102454.19;6002274;28;20077;-68
2023/03/01 05:54:43;;;;;;;12.73;4.40;;;;;;;-4.99;99.69;102449.84;5994993;28;20467;-69
2023/03/01 05:57:38;;;;;;;10.33;4.43;;;;;;;-4.87;98.87;102465.31;6004935;28;20043;-68
2023/03/01 06:00:34;;;;;;;11.87;4.67;;;;;;;-4.79;99.57;102454.06;6004825;28;20050;-68
2023/03/01 06:03:29;;;;;;;11.55;4.75;;;;;;;-4.66;99.03;102441.06;6003564;28;20518;-68
2023/03/01 06:06:25;;;;;;;12.67;4.40;;;;;;;-4.60;98.13;102459.16;6003763;28;20450;-69
2023/03/01 06:09:20;;;;;;;10.02;3.78;;;;;;;-4.68;96.67;102437.63;6005045;28;20078;-69
2023/03/01 06:12:16;;;;;;;11.10;4.27;;;;;;;-4.49;97.23;102447.03;6003387;28;20035;-69
2023/03/01 06:15:13;;;;;;;8.63;4.40;;;;;;;-4.30;97.34;102448.63;6004779;28;20035;-67
2023/03/01 06:18:08;;;;;;;12.27;4.68;;;;;;;-4.74;96.35;102457.50;6004656;28;20035;-68
2023/03/01 06:21:04;;;;;;;10.15;4.18;;;;;;;-4.45;98.42;102453.91;6002285;28;20042;-67
2023/03/01 06:24:00;;;;;;;14.07;6.25;;;;;;;-4.48;97.44;102459.09;5994452;28;20058;-68
2023/03/01 06:26:55;;;;;;;10.83;3.70;;;;;;;-4.51;97.08;102458.25;6004331;28;20394;-68
2023/03/01 06:29:50;;;;;;;13.68;5.10;;;;;;;-4.61;96.65;102446.22;6004435;28;20031;-68
2023/03/01 06:32:46;;;;;;;14.00;7.30;;;;;;;-4.71;96.12;102450.59;5986439;28;20460;-69
2023/03/01 06:35:41;;;;;;;9.90;4.68;;;;;;;-5.17;95.37;102462.84;6002335;28;20059;-67
2023/03/01 06:38:37;;;;;;;10.68;4.78;;;;;;;-5.12;96.90;102452.47;6000227;28;20034;-68
2023/03/01 06:41:33;;;;;;;12.23;4.80;;;;;;;-4.78;97.68;102460.97;6003351;28;20113;-69
2023/03/01 06:44:28;;;;;;;9.50;4.60;;;;;;;-4.85;97.39;102463.59;6003375;28;20037;-68
2023/03/01 06:47:24;;;;;;;14.10;5.00;;;;;;;-4.92;96.62;102445.50;6003921;28;20034;-69
2023/03/01 06:50:19;;;;;;;11.37;4.70;;;;;;;-4.65;98.32;102449.69;5996973;28;20033;-69
2023/03/01 06:53:14;;;;;;;12.83;4.87;;;;;;;-4.85;98.00;102442.88;6003209;28;20386;-68
2023/03/01 06:56:09;;;;;;;18.80;4.90;;;;;;;-4.43;98.50;102451.31;6003663;28;20797;-69
2023/03/01 06:59:05;;;;;;;10.97;4.77;;;;;;;-4.23;98.48;102463.25;6003070;28;20034;-69
2023/03/01 07:02:00;;;;;;;14.52;4.75;;;;;;;-4.23;98.04;102465.84;6002938;28;20038;-69
2023/03/01 07:04:56;;;;;;;12.90;4.97;;;;;;;-4.18;97.60;102457.19;6003308;28;20066;-69
2023/03/01 07:07:51;;;;;;;10.47;4.67;;;;;;;-3.87;98.59;102463.88;6003107;28;20035;-69
2023/03/01 07:10:46;;;;;;;17.05;4.78;;;;;;;-3.52;98.67;102450.59;6001868;28;20065;-70
2023/03/01 07:13:42;;;;;;;16.63;5.63;;;;;;;-3.17;98.66;102458.88;6001619;28;20035;-69
2023/03/01 07:16:37;;;;;;;11.27;4.57;;;;;;;-3.03;98.78;102454.41;6000616;28;20277;-69
2023/03/01 07:19:32;;;;;;;14.33;5.77;;;;;;;-2.59;99.34;102451.28;6002901;28;20109;-70
2023/03/01 07:22:28;;;;;;;16.40;5.73;;;;;;;-2.43;97.46;102425.09;5991451;28;20071;-70
2023/03/01 07:25:23;;;;;;;16.30;5.30;;;;;;;-2.13;96.40;102426.38;6003004;28;20057;-70
2023/03/01 07:28:19;;;;;;;13.00;5.80;;;;;;;-2.15;96.45;102419.47;6002939;28;20459;-70
2023/03/01 07:31:14;;;;;;;13.85;5.00;;;;;;;-2.24;97.91;102409.22;6002696;28;20310;-71
2023/03/01 07:34:10;;;;;;;15.70;5.80;;;;;;;-1.59;100.00;102422.00;5999388;28;20398;-70
2023/03/01 07:37:05;;;;;;;24.80;6.45;;;;;;;-1.77;100.00;102424.06;6002713;28;20081;-72
2023/03/01 07:40:01;;;;;;;14.00;4.63;;;;;;;-1.68;99.60;102419.53;6002716;28;20050;-71
2023/03/01 07:42:57;;;;;;;12.80;5.70;;;;;;;-1.40;97.17;102415.56;6001182;28;20594;-73
2023/03/01 07:45:52;;;;;;;16.38;5.57;;;;;;;-1.31;95.39;102418.00;6002018;28;20037;-70
2023/03/01 07:48:48;;;;;;;15.23;6.00;;;;;;;-1.83;94.28;102414.63;6002370;28;20030;-71
2023/03/01 07:51:43;;;;;;;12.63;5.73;;;;;;;-1.33;94.87;102431.91;6002612;28;20050;-70
2023/03/01 07:54:38;;;;;;;11.80;5.20;;;;;;;-0.99;94.18;102414.78;6002055;28;20027;-73
2023/03/01 07:57:34;;;;;;;13.73;5.47;;;;;;;-0.67;92.83;102421.91;6001853;28;20098;-71
2023/03/01 08:00:29;;;;;;;12.73;5.33;;;;;;;-0.42;91.20;102417.88;6001846;28;20269;-71
2023/03/01 08:03:24;;;;;;;14.17;4.97;;;;;;;-0.21;88.78;102422.59;6002558;28;20081;-73
2023/03/01 08:06:19;;;;;;;12.27;5.37;;;;;;;0.33;88.20;102424.75;5996462;28;20290;-70
2023/03/01 08:09:15;;;;;;;12.70;5.87;;;;;;;0.75;85.14;102431.47;6001971;28;20198;-73
2023/03/01 08:12:10;;;;;;;11.30;5.63;;;;;;;1.22;84.04;102419.69;6001389;28;20027;-72
2023/03/01 08:15:06;;;;;;;13.23;6.13;;;;;;;0.81;80.13;102415.66;6000979;28;20070;-70
2023/03/01 08:18:01;;;;;;;11.25;5.30;;;;;;;1.27;79.88;102422.16;6002045;28;20121;-73
2023/03/01 08:21:11;;;;;;;11.70;4.93;;;;;;;0.66;80.16;102423.88;6001864;28;20097;-72
2023/03/01 08:24:07;;;;;;;16.88;5.57;;;;;;;1.50;80.52;102422.31;5999309;28;20301;-72
2023/03/01 08:27:02;;;;;;;12.15;5.43;;;;;;;1.44;80.80;102425.16;6003053;28;20506;-73
2023/03/01 08:29:58;;;;;;;14.88;5.07;;;;;;;1.21;80.15;102415.38;6005237;28;20102;-72
2023/03/01 08:32:53;;;;;;;9.83;4.30;;;;;;;1.25;77.93;102395.25;6004952;28;20046;-72
2023/03/01 08:35:48;;;;;;;8.45;4.97;;;;;;;1.47;76.38;102414.59;6005260;28;20599;-70
2023/03/01 08:38:44;;;;;;;10.13;4.40;;;;;;;1.44;77.23;102404.25;6006667;28;20034;-71
2023/03/01 08:41:39;;;;;;;11.70;4.47;;;;;;;1.40;76.97;102402.59;6005991;28;20034;-70
2023/03/01 08:44:34;;;;;;;8.93;4.32;;;;;;;1.36;78.17;102401.84;6004803;28;20043;-71
2023/03/01 08:47:30;;;;;;;8.37;4.30;;;;;;;1.53;75.96;102410.03;6005397;28;20035;-72
2023/03/01 08:50:25;;;;;;;8.87;4.00;;;;;;;1.44;76.68;102412.91;6005936;28;20398;-74
2023/03/01 08:53:20;;;;;;;12.87;3.90;;;;;;;1.62;76.70;102393.22;6005695;28;20047;-72
2023/03/01 08:56:18;;;;;;;9.63;4.17;;;;;;;2.03;74.67;102408.44;6006199;28;20266;-72
2023/03/01 08:59:15;;;;;;;11.95;4.63;;;;;;;1.90;73.78;102414.97;6005032;28;20049;-73
2023/03/01 09:02:17;;;;;;;7.50;3.03;;;;;;;1.90;73.89;102411.50;6004538;28;20031;-71
2023/03/01 09:05:13;;;;;;;17.20;5.30;;;;;;;1.89;72.23;102412.41;6003959;28;20026;-74
2023/03/01 09:08:08;;;;;;;7.97;3.63;;;;;;;2.03;72.09;102405.81;6005977;28;20035;-73
2023/03/01 09:11:05;;;;;;;9.63;3.53;;;;;;;2.05;72.07;102411.00;6006129;28;20394;-72
2023/03/01 09:14:00;;;;;;;8.18;4.25;;;;;;;2.45;71.20;102405.31;6004414;28;20114;-72
2023/03/01 09:16:55;;;;;;;9.00;3.53;;;;;;;2.42;69.80;102406.25;6005211;28;20053;-72
2023/03/01 09:19:51;;;;;;;10.05;3.85;;;;;;;2.64;70.57;102399.34;5994033;28;20391;-73
2023/03/01 09:22:46;;;;;;;6.63;2.70;;;;;;;2.77;69.73;102394.56;6004443;28;20074;-71
2023/03/01 09:25:41;;;;;;;7.18;2.88;;;;;;;2.82;68.48;102397.84;6005242;28;20030;-72
2023/03/01 09:28:38;;;;;;;8.90;3.40;;;;;;;2.97;68.43;102397.28;6005454;28;20401;-71
2023/03/01 09:31:33;;;;;;;8.32;3.10;;;;;;;3.07;66.73;102398.69;6005560;28;20540;-70
2023/03/01 09:34:29;;;;;;;10.80;3.53;;;;;;;3.29;66.98;102398.72;6004887;28;20039;-70
2023/03/01 09:37:24;;;;;;;10.07;3.42;;;;;;;3.43;66.63;102397.28;6005047;28;20035;-73
2023/03/01 09:40:21;;;;;;;7.47;2.90;;;;;;;3.61;66.19;102379.97;6004812;28;20085;-72
2023/03/01 09:43:35;;;;;;;8.68;3.63;;;;;;;3.80;64.96;102385.34;6004634;28;20035;-72
2023/03/01 09:46:37;;;;;;;8.35;3.60;;;;;;;3.88;65.68;102388.50;6004939;28;20031;-72
2023/03/01 09:49:39;;;;;;;10.27;3.67;;;;;;;3.88;65.63;102386.75;6003706;28;20049;-71
2023/03/01 09:52:51;;;;;;;7.30;3.25;;;;;;;3.99;63.60;102383.69;6003355;28;20102;-70
2023/03/01 09:56:04;;;;;;;8.38;3.60;;;;;;;4.02;63.16;102388.81;6004824;28;20047;-70
2023/03/01 09:59:29;;;;;;;8.10;3.30;;;;;;;4.08;63.32;102368.41;6005053;28;20453;-71
2023/03/01 10:02:33;;;;;;;6.30;3.03;;;;;;;4.12;61.69;102374.38;6002669;28;20026;-70
2023/03/01 10:05:39;;;;;;;5.93;2.65;;;;;;;4.35;62.23;102376.03;6004274;28;20038;-71
2023/03/01 10:08:41;;;;;;;11.20;3.17;;;;;;;4.45;60.58;102377.34;6004754;28;20490;-70
2023/03/01 10:11:38;;;;;;;8.05;2.97;;;;;;;4.20;60.84;102375.78;6003348;28;20095;-70
2023/03/01 10:14:42;;;;;;;8.52;2.95;;;;;;;4.12;61.64;102387.50;6003008;28;20030;-71
2023/03/01 10:17:58;;;;;;;14.80;6.55;;;;;;;4.24;62.08;102379.09;5999820;28;20090;-70
2023/03/01 10:20:58;;;;;;;10.15;4.10;;;;;;;4.46;60.88;102374.63;6003152;28;20038;-69
2023/03/01 10:23:54;;;;;;;7.18;3.75;;;;;;;4.47;61.21;102363.22;6002896;28;20481;-69
2023/03/01 10:26:59;;;;;;;7.20;3.05;;;;;;;4.77;60.78;102374.16;6003035;28;20043;-70
2023/03/01 10:30:13;;;;;;;6.18;2.60;;;;;;;5.15;59.41;102368.03;6003215;28;20034;-71
2023/03/01 10:33:18;;;;;;;5.85;2.60;;;;;;;4.91;57.62;102352.53;6003458;28;20114;-69
2023/03/01 10:36:13;;;;;;;7.65;2.65;;;;;;;4.75;57.26;102371.63;6018062;28;20035;-68
2023/03/01 10:39:18;;;;;;;6.90;2.70;;;;;;;4.88;58.42;102373.69;6000629;28;20027;-69
2023/03/01 10:42:25;;;;;;;6.82;2.65;;;;;;;4.86;56.83;102372.91;6002088;28;20077;-68
2023/03/01 10:45:27;;;;;;;;;;;;;;;5.05;56.65;102360.63;6004056;28;20062;-68
2023/03/01 10:48:26;;;;;;;5.53;2.60;;;;;;;5.08;56.50;102365.75;6002725;28;19910;-71
2023/03/01 10:51:22;;;;;;;4.93;2.15;;;;;;;5.16;55.96;102361.00;6003771;28;20112;-70
2023/03/01 10:54:22;;;;;;;6.43;2.38;;;;;;;5.20;54.89;102336.25;6002455;28;20383;-69
2023/03/01 10:57:29;;;;;;;7.57;2.38;;;;;;;5.47;55.72;102357.75;6002326;28;20051;-69
2023/03/01 11:00:26;;;;;;;5.03;2.17;;;;;;;5.28;54.22;102340.22;6002884;28;20034;-72
2023/03/01 11:03:33;;;;;;;5.47;2.00;;;;;;;5.46;55.67;102354.31;6001451;28;20034;-70
2023/03/01 11:06:29;;;;;;;5.65;2.30;;;;;;;5.76;54.64;102344.91;6001769;28;20031;-69
2023/03/01 11:09:27;;;;;;;5.77;2.37;;;;;;;5.71;54.31;102341.66;6003358;28;20039;-69
2023/03/01 11:12:22;;;;;;;4.70;2.10;;;;;;;5.76;53.08;102326.47;6001527;28;20022;-70
2023/03/01 11:15:28;;;;;;;5.25;2.22;;;;;;;5.80;53.00;102349.09;6000304;28;20041;-69
2023/03/01 11:18:23;;;;;;;5.50;2.03;;;;;;;5.70;52.25;102337.34;5998829;28;20376;-70
2023/03/01 11:21:18;;;;;;;5.40;2.83;;;;;;;5.76;52.40;102339.63;5998518;28;20050;-69
2023/03/01 11:24:14;;;;;;;6.43;2.70;;;;;;;5.66;51.98;102340.16;5994758;28;20038;-70
2023/03/01 11:27:24;;;;;;;7.22;2.25;;;;;;;5.71;52.33;102336.38;6002098;28;20038;-69
2023/03/01 11:31:02;;;;;;;9.15;3.40;;;;;;;5.75;51.68;102340.59;6002834;28;20054;-69
2023/03/01 11:34:14;;;;;;;6.18;3.05;;;;;;;5.84;53.04;102334.03;6000973;28;20059;-70
2023/03/01 11:37:24;;;;;;;8.68;3.20;;;;;;;5.52;52.30;102309.25;6017690;28;20031;-71
2023/03/01 11:40:26;;;;;;;4.25;2.42;;;;;;;5.84;51.99;102320.88;6001000;28;20041;-69
2023/03/01 11:43:36;;;;;;;5.97;2.80;;;;;;;5.75;53.57;102329.19;5994156;28;20038;-70
2023/03/01 11:46:31;;;;;;;8.73;2.67;;;;;;;5.73;53.64;102331.94;6002895;28;20042;-69
2023/03/01 11:49:51;;;;;;;6.53;2.35;;;;;;;5.75;52.98;102332.69;6002561;28;20387;-70
2023/03/01 11:52:55;;;;;;;6.50;2.45;;;;;;;5.69;52.12;102332.13;5983233;28;20399;-69
2023/03/01 11:56:16;;;;;;;5.60;2.53;;;;;;;5.76;51.15;102323.84;6001776;28;20030;-69
2023/03/01 11:59:42;;;;;;;5.57;2.22;;;;;;;5.56;51.99;102325.75;6002312;28;20045;-68
2023/03/01 12:03:12;;;;;;;5.38;2.20;;;;;;;5.55;51.47;102297.75;5989697;28;20037;-69
2023/03/01 12:06:31;;;;;;;6.10;2.30;;;;;;;5.65;52.22;102304.28;6002338;28;20034;-69
2023/03/01 12:09:44;;;;;;;6.22;2.60;;;;;;;5.73;51.05;102302.13;6017367;28;20389;-68
2023/03/01 12:12:49;;;;;;;5.03;2.40;;;;;;;5.50;52.09;102303.22;6001235;28;20031;-69
2023/03/01 12:15:59;;;;;;;6.38;2.40;;;;;;;5.41;51.77;102301.03;6001942;28;20077;-69
2023/03/01 12:19:10;;;;;;;4.75;2.28;;;;;;;5.32;52.25;102296.25;6017565;28;20533;-70
2023/03/01 12:22:40;;;;;;;4.85;2.85;;;;;;;5.60;51.89;102291.31;6000249;28;20110;-69
2023/03/01 12:25:41;;;;;;;4.40;2.10;;;;;;;5.71;50.51;102290.78;6016474;28;20090;-70
2023/03/01 12:28:46;;;;;;;4.50;1.83;;;;;;;5.65;49.50;102286.72;6016497;28;20035;-69
2023/03/01 12:32:00;;;;;;;6.72;1.95;;;;;;;5.38;50.71;102278.38;6002114;28;20089;-69
2023/03/01 12:35:40;;;;;;;4.78;1.92;;;;;;;5.73;50.79;102266.13;6001445;28;20035;-70
2023/03/01 12:38:45;;;;;;;6.65;2.17;;;;;;;5.87;49.54;102268.94;5985380;28;20449;-70
2023/03/01 12:41:55;;;;;;;5.50;2.03;;;;;;;5.77;50.23;102267.66;6002223;28;20062;-70
2023/03/01 12:45:02;;;;;;;6.03;2.15;;;;;;;5.93;49.05;102252.81;6001528;28;20046;-69
2023/03/01 12:48:14;;;;;;;5.60;2.00;;;;;;;5.79;48.29;102250.00;5990463;28;20035;-72
2023/03/01 12:51:14;;;;;;;5.65;2.40;;;;;;;5.76;49.39;102241.44;6000995;28;20085;-69
2023/03/01 12:54:39;;;;;;;4.78;1.60;;;;;;;5.64;48.79;102229.75;6000922;28;20450;-69
2023/03/01 12:57:41;;;;;;;4.43;1.77;;;;;;;5.73;48.29;102233.69;5989300;28;20059;-70
2023/03/01 13:00:53;;;;;;;7.10;1.95;;;;;;;5.60;49.14;102222.09;6001715;28;20466;-72
2023/03/01 13:04:09;;;;;;;3.45;1.92;;;;;;;5.59;47.85;102225.63;6000384;28;20113;-71
2023/03/01 13:07:25;;;;;;;4.30;2.40;;;;;;;5.69;47.57;102226.88;6000723;28;20038;-71
2023/03/01 13:10:31;;;;;;;5.25;1.98;;;;;;;5.56;48.23;102205.59;6000633;28;20039;-72
2023/03/01 13:13:27;;;;;;;4.60;2.55;;;;;;;5.96;48.67;102220.22;6002168;28;20055;-72
2023/03/01 13:16:29;;;;;;;6.60;3.22;;;;;;;6.09;47.96;102209.94;6006330;28;20034;-71
2023/03/01 13:19:26;;;;;;;4.70;2.08;;;;;;;5.96;47.80;102231.63;6005918;28;20098;-71
2023/03/01 13:22:39;;;;;;;5.82;2.65;;;;;;;5.59;48.04;102201.97;6004087;28;20031;-71
2023/03/01 13:25:35;;;;;;;4.30;1.77;;;;;;;5.67;47.92;102197.16;6005765;28;20039;-71
2023/03/01 13:28:48;;;;;;;3.57;1.77;;;;;;;5.76;48.98;102208.03;6004809;28;20035;-72
2023/03/01 13:31:46;;;;;;;4.40;1.92;;;;;;;5.87;48.93;102205.75;6005070;28;20390;-71
2023/03/01 13:34:45;;;;;;;5.57;2.03;;;;;;;5.88;47.99;102196.06;6005296;28;20037;-72
2023/03/01 13:37:41;;;;;;;5.40;1.95;;;;;;;5.81;46.93;102185.00;6005699;28;20069;-72
2023/03/01 13:40:36;;;;;;;4.22;1.75;;;;;;;6.06;47.50;102194.28;6005493;28;20385;-70
2023/03/01 13:43:35;;;;;;;4.75;1.67;;;;;;;5.88;46.84;102175.88;6004575;28;20054;-71
2023/03/01 13:46:32;;;;;;;7.85;2.90;;;;;;;5.86;47.88;102182.16;6003882;28;20035;-71
2023/03/01 13:49:29;;;;;;;4.63;2.05;;;;;;;5.75;48.74;102190.56;6004438;28;20101;-71
2023/03/01 13:52:39;;;;;;;4.50;2.00;;;;;;;5.69;47.96;102185.63;6003556;28;20475;-72
2023/03/01 13:55:42;;;;;;;4.65;1.50;;;;;;;5.66;48.39;102175.25;6004307;28;20035;-71
2023/03/01 13:58:58;;;;;;;6.93;2.17;;;;;;;5.77;48.00;102185.22;6003588;28;20038;-71